Time;durP1;ratioP1;P1;durP2;ratioP2;P2;SDS_P1;SDS_P2;PMS_P1;PMS_P2;Temp;Humidity;BMP_temperature;BMP_pressure;BME280_temperature;BME280_humidity;BME280_pressure;Samples;Min_cycle;Max_cycle;Signal;HPM_P1;HPM_P2
2023/05/25 00:02:18;;;;;;;12.20;4.15;;;10.80;99.90;;;;;;5027364;28;20435;-88
2023/05/25 00:04:47;;;;;;;11.40;4.30;;;10.80;99.90;;;;;;5035224;28;20049;-86
2023/05/25 00:07:14;;;;;;;11.95;3.50;;;10.70;99.90;;;;;;5040598;28;20079;-86
2023/05/25 00:09:43;;;;;;;14.90;3.50;;;10.70;99.90;;;;;;5046622;28;20094;-84
2023/05/25 00:12:09;;;;;;;11.73;4.20;;;10.70;99.90;;;;;;5034782;28;20067;-87
2023/05/25 00:14:35;;;;;;;12.35;3.97;;;10.70;99.90;;;;;;5037210;28;20114;-87
2023/05/25 00:17:02;;;;;;;8.50;3.78;;;10.60;99.90;;;;;;5037296;28;20128;-87
2023/05/25 00:19:32;;;;;;;10.00;3.85;;;10.60;99.90;;;;;;5034128;28;20041;-87
2023/05/25 00:22:01;;;;;;;9.77;4.45;;;10.60;99.90;;;;;;5041704;28;20163;-87
2023/05/25 00:24:31;;;;;;;10.10;3.95;;;10.60;99.90;;;;;;5047485;28;20116;-87
2023/05/25 00:26:57;;;;;;;11.55;4.50;;;10.60;99.90;;;;;;5026228;28;20044;-86
2023/05/25 00:29:24;;;;;;;9.02;3.83;;;10.50;99.90;;;;;;5047364;28;20446;-87
2023/05/25 00:31:51;;;;;;;11.80;4.82;;;10.50;99.90;;;;;;5038955;28;20181;-86
2023/05/25 00:34:16;;;;;;;12.35;4.47;;;10.40;99.90;;;;;;5052071;28;20123;-86
2023/05/25 00:36:42;;;;;;;10.57;4.10;;;10.50;99.90;;;;;;5043861;28;20072;-87
2023/05/25 00:39:08;;;;;;;8.68;3.72;;;10.40;99.90;;;;;;5037384;28;20558;-84
2023/05/25 00:41:40;;;;;;;12.02;4.18;;;10.30;99.90;;;;;;5035999;28;20548;-87
2023/05/25 00:44:07;;;;;;;11.35;3.65;;;10.20;99.90;;;;;;5054562;28;20076;-85
2023/05/25 00:46:43;;;;;;;11.02;4.60;;;10.20;99.90;;;;;;5035847;28;20425;-87
2023/05/25 00:49:12;;;;;;;9.13;3.97;;;10.20;99.90;;;;;;5036141;28;20049;-87
2023/05/25 00:51:38;;;;;;;9.18;4.15;;;10.20;99.90;;;;;;5038673;28;20125;-86
2023/05/25 00:54:04;;;;;;;10.82;4.43;;;10.20;99.90;;;;;;5039699;28;20510;-87
2023/05/25 00:56:34;;;;;;;11.38;3.67;;;10.20;99.90;;;;;;5036337;28;20045;-86
2023/05/25 00:59:03;;;;;;;10.40;3.97;;;10.10;99.90;;;;;;5035427;28;20045;-85
2023/05/25 01:01:32;;;;;;;7.97;3.45;;;10.10;99.90;;;;;;5034863;28;20057;-87
2023/05/25 01:04:00;;;;;;;11.85;3.95;;;10.10;99.90;;;;;;5037256;28;20033;-86
2023/05/25 01:06:30;;;;;;;8.77;4.28;;;10.10;99.90;;;;;;5037561;28;20041;-87
2023/05/25 01:09:01;;;;;;;7.22;3.17;;;10.10;99.90;;;;;;5043552;28;20151;-87
2023/05/25 01:11:32;;;;;;;10.45;3.88;;;10.10;99.90;;;;;;5041233;28;20120;-87
2023/05/25 01:13:58;;;;;;;12.82;4.15;;;10.10;99.90;;;;;;5041844;28;20120;-87
2023/05/25 01:16:27;;;;;;;10.10;4.85;;;10.10;99.90;;;;;;5035102;28;20125;-87
2023/05/25 01:18:53;;;;;;;10.88;4.93;;;10.10;99.90;;;;;;5044922;28;20040;-87
2023/05/25 01:21:25;;;;;;;8.00;3.80;;;10.10;99.90;;;;;;5040342;28;20565;-86
2023/05/25 01:24:31;;;;;;;9.57;4.60;;;10.40;99.90;;;;;;5048855;28;20124;-86
2023/05/25 01:27:12;;;;;;;11.00;4.45;;;10.00;99.90;;;;;;5034056;28;20495;-87
2023/05/25 01:29:42;;;;;;;9.68;4.55;;;10.00;99.90;;;;;;5033542;28;20048;-86
2023/05/25 01:32:08;;;;;;;9.35;3.67;;;9.90;99.90;;;;;;5051277;28;20037;-87
2023/05/25 01:34:36;;;;;;;6.80;3.67;;;9.90;99.90;;;;;;5037543;28;20135;-87
2023/05/25 01:37:03;;;;;;;11.02;4.60;;;9.90;99.90;;;;;;5046083;28;20545;-87
2023/05/25 01:39:28;;;;;;;10.10;4.25;;;9.90;99.90;;;;;;5044354;28;20045;-87
2023/05/25 01:41:54;;;;;;;9.82;4.82;;;9.80;99.90;;;;;;5041560;28;20033;-87
2023/05/25 01:44:20;;;;;;;11.63;4.25;;;9.80;99.90;;;;;;5038901;28;20464;-86
2023/05/25 01:46:50;;;;;;;9.90;3.95;;;9.80;99.90;;;;;;5033149;28;20029;-87
2023/05/25 01:49:30;;;;;;;12.63;4.00;;;9.80;99.90;;;;;;5038433;28;20090;-87
2023/05/25 01:51:59;;;;;;;9.25;4.13;;;9.80;99.90;;;;;;5040328;28;20043;-87
2023/05/25 01:54:35;;;;;;;7.72;3.65;;;9.80;99.90;;;;;;5040284;28;20088;-86
2023/05/25 01:57:05;;;;;;;10.85;4.50;;;9.70;99.90;;;;;;5036492;28;20041;-87
2023/05/25 01:59:32;;;;;;;12.23;5.53;;;9.80;99.90;;;;;;5038587;28;20045;-88
2023/05/25 02:01:59;;;;;;;10.48;4.53;;;9.80;99.90;;;;;;5035380;28;20292;-87
2023/05/25 02:04:26;;;;;;;10.95;4.35;;;9.80;99.90;;;;;;5032240;28;20041;-87
2023/05/25 02:06:52;;;;;;;8.43;4.18;;;9.80;99.90;;;;;;5046078;28;20539;-88
2023/05/25 02:09:17;;;;;;;9.77;4.38;;;9.70;99.90;;;;;;5040345;28;20138;-87
2023/05/25 02:11:43;;;;;;;8.10;3.63;;;9.70;99.90;;;;;;5035016;28;20176;-88
2023/05/25 02:14:09;;;;;;;11.15;4.78;;;9.80;99.90;;;;;;5030648;28;20052;-87
2023/05/25 02:16:35;;;;;;;10.98;4.68;;;9.70;99.90;;;;;;5038216;28;20036;-87
2023/05/25 02:19:01;;;;;;;9.75;4.03;;;9.80;99.90;;;;;;5035817;28;20053;-87
2023/05/25 02:21:27;;;;;;;10.82;4.85;;;9.70;99.90;;;;;;5048008;28;20033;-86
2023/05/25 02:23:53;;;;;;;9.93;4.60;;;9.70;99.90;;;;;;5035027;28;20132;-87
2023/05/25 02:26:20;;;;;;;9.68;5.43;;;9.70;99.90;;;;;;5031780;28;20037;-87
2023/05/25 02:28:46;;;;;;;12.20;4.88;;;9.70;99.90;;;;;;5038594;28;20092;-87
2023/05/25 02:31:12;;;;;;;9.20;4.40;;;9.70;99.90;;;;;;5042610;28;20029;-87
2023/05/25 02:33:37;;;;;;;10.93;4.57;;;9.70;99.90;;;;;;5033798;28;20045;-88
2023/05/25 02:36:04;;;;;;;9.65;4.47;;;9.60;99.90;;;;;;5038026;28;20391;-87
2023/05/25 02:38:32;;;;;;;14.60;5.90;;;9.60;99.90;;;;;;5040304;28;20044;-87
2023/05/25 02:40:58;;;;;;;11.65;5.03;;;9.50;99.90;;;;;;5026177;28;20041;-87
2023/05/25 02:43:24;;;;;;;7.90;4.22;;;9.50;99.90;;;;;;5036607;28;20040;-87
2023/05/25 02:45:53;;;;;;;10.32;4.80;;;9.40;99.90;;;;;;5038172;28;20049;-87
2023/05/25 02:48:20;;;;;;;10.25;4.45;;;9.40;99.90;;;;;;5024863;28;20041;-87
2023/05/25 02:50:46;;;;;;;10.23;4.38;;;9.40;99.90;;;;;;5047291;28;20033;-87
2023/05/25 02:53:12;;;;;;;8.75;4.13;;;9.40;99.90;;;;;;5032139;28;20045;-87
2023/05/25 02:55:39;;;;;;;10.63;4.85;;;9.30;99.90;;;;;;5035648;28;20325;-87
2023/05/25 02:58:05;;;;;;;9.27;5.22;;;9.30;99.90;;;;;;5039742;28;20118;-87
2023/05/25 03:00:31;;;;;;;11.50;5.35;;;9.30;99.90;;;;;;5050186;28;20040;-88
2023/05/25 03:02:57;;;;;;;8.23;4.50;;;9.30;99.90;;;;;;5042045;28;20041;-87
2023/05/25 03:05:23;;;;;;;13.55;5.03;;;9.30;99.90;;;;;;5048415;28;20045;-87
2023/05/25 03:07:49;;;;;;;10.60;5.25;;;9.30;99.90;;;;;;5044785;28;20041;-87
2023/05/25 03:10:15;;;;;;;12.60;4.72;;;9.30;99.90;;;;;;5039742;28;20061;-87
2023/05/25 03:12:41;;;;;;;9.82;4.85;;;9.20;99.90;;;;;;5026270;28;20048;-86
2023/05/25 03:15:10;;;;;;;10.55;5.28;;;9.20;99.90;;;;;;5042096;28;20038;-87
2023/05/25 03:17:36;;;;;;;9.90;4.60;;;9.20;99.90;;;;;;5032447;28;20049;-86
2023/05/25 03:20:02;;;;;;;11.23;4.47;;;9.10;99.90;;;;;;5039342;28;20542;-87
2023/05/25 03:22:28;;;;;;;9.88;4.93;;;9.00;99.90;;;;;;5039562;28;20045;-87
2023/05/25 03:24:54;;;;;;;9.63;4.35;;;9.10;99.90;;;;;;5047429;28;20044;-87
2023/05/25 03:27:20;;;;;;;10.35;5.05;;;9.10;99.90;;;;;;5042222;28;20109;-87
2023/05/25 03:29:49;;;;;;;12.27;5.72;;;9.20;99.90;;;;;;5042522;28;20033;-87
2023/05/25 03:32:15;;;;;;;12.40;4.72;;;9.20;99.90;;;;;;5041963;28;20049;-87
2023/05/25 03:34:41;;;;;;;9.98;5.07;;;9.20;99.90;;;;;;5044406;28;20403;-88
2023/05/25 03:37:12;;;;;;;8.90;4.72;;;9.20;99.90;;;;;;5056760;28;20037;-87
2023/05/25 03:39:38;;;;;;;9.05;4.65;;;9.20;99.90;;;;;;5035690;28;20132;-87
2023/05/25 03:42:05;;;;;;;9.65;5.28;;;9.20;99.90;;;;;;5042338;28;20168;-86
2023/05/25 03:44:31;;;;;;;12.02;5.32;;;9.20;99.90;;;;;;5034213;28;20042;-87
2023/05/25 03:46:57;;;;;;;13.10;5.00;;;9.40;99.90;;;;;;5048706;28;20049;-87
2023/05/25 03:49:23;;;;;;;8.55;4.80;;;9.30;99.90;;;;;;5041230;28;20036;-87
2023/05/25 03:51:49;;;;;;;12.60;5.80;;;9.30;99.90;;;;;;5041060;28;20476;-87
2023/05/25 03:54:15;;;;;;;12.68;5.00;;;9.30;99.90;;;;;;5045354;28;20058;-87
2023/05/25 03:56:40;;;;;;;12.88;4.72;;;9.20;99.90;;;;;;5050487;28;20079;-86
2023/05/25 03:59:06;;;;;;;9.20;4.75;;;9.30;99.90;;;;;;5047355;28;20048;-87
2023/05/25 04:01:32;;;;;;;12.85;5.72;;;9.30;99.90;;;;;;5038849;28;20092;-87
2023/05/25 04:03:58;;;;;;;11.05;6.20;;;9.30;99.90;;;;;;5038519;28;20041;-87
2023/05/25 04:06:24;;;;;;;13.05;5.97;;;9.30;99.90;;;;;;5026105;28;20045;-87
2023/05/25 04:08:54;;;;;;;11.50;4.95;;;9.30;99.90;;;;;;5047877;28;20211;-87
2023/05/25 04:11:21;;;;;;;10.70;4.63;;;9.30;99.90;;;;;;5039388;28;20045;-86
2023/05/25 04:13:50;;;;;;;9.55;4.88;;;9.30;99.90;;;;;;5035346;28;20044;-88
2023/05/25 04:16:16;;;;;;;11.98;4.95;;;9.50;99.90;;;;;;5037259;28;20073;-87
2023/05/25 04:18:41;;;;;;;10.27;5.43;;;9.30;99.90;;;;;;5032642;28;20123;-88
2023/05/25 04:21:07;;;;;;;9.52;4.93;;;9.30;99.90;;;;;;5036065;28;20025;-86
2023/05/25 04:23:33;;;;;;;9.88;3.85;;;9.20;99.90;;;;;;5040198;28;20116;-87
2023/05/25 04:25:59;;;;;;;9.77;4.97;;;9.30;99.90;;;;;;5040240;28;20123;-87
2023/05/25 04:28:27;;;;;;;11.13;4.90;;;9.30;99.90;;;;;;5039035;28;20183;-87
2023/05/25 04:30:55;;;;;;;14.23;6.43;;;9.30;99.90;;;;;;5048803;28;20502;-86
2023/05/25 04:33:28;;;;;;;10.60;4.40;;;9.30;99.90;;;;;;5045002;28;21538;-87
2023/05/25 04:35:57;;;;;;;8.95;5.13;;;9.30;99.90;;;;;;5038744;28;20067;-87
2023/05/25 04:38:26;;;;;;;11.20;5.32;;;9.40;99.90;;;;;;5050900;28;20388;-87
2023/05/25 04:40:56;;;;;;;13.32;6.53;;;9.40;99.90;;;;;;5049664;28;20038;-86
2023/05/25 04:43:24;;;;;;;9.52;5.38;;;9.30;99.90;;;;;;5034113;28;20037;-89
2023/05/25 04:45:51;;;;;;;14.15;6.05;;;9.40;99.90;;;;;;5051406;28;20102;-86
2023/05/25 04:48:17;;;;;;;12.88;5.75;;;9.40;99.90;;;;;;5040530;28;20199;-86
2023/05/25 04:50:43;;;;;;;11.90;6.22;;;9.30;99.90;;;;;;5037604;28;20068;-86
2023/05/25 04:53:09;;;;;;;8.85;5.13;;;9.40;99.90;;;;;;5040565;28;20055;-87
2023/05/25 04:55:35;;;;;;;11.07;5.32;;;9.60;99.90;;;;;;5042293;28;20038;-86
2023/05/25 04:58:02;;;;;;;11.43;5.25;;;9.40;99.90;;;;;;5042903;28;20040;-85
2023/05/25 05:00:27;;;;;;;9.07;4.50;;;9.40;99.90;;;;;;5053615;28;20065;-84
2023/05/25 05:03:00;;;;;;;9.95;4.15;;;9.50;99.90;;;;;;5036665;28;20072;-86
2023/05/25 05:05:26;;;;;;;17.17;7.95;;;9.50;99.90;;;;;;5032490;28;20030;-86
2023/05/25 05:07:52;;;;;;;11.32;5.80;;;9.50;99.90;;;;;;5049682;28;20041;-86
2023/05/25 05:10:18;;;;;;;15.10;7.22;;;9.50;99.90;;;;;;5030984;28;20060;-88
2023/05/25 05:12:44;;;;;;;12.23;5.50;;;9.60;99.90;;;;;;5032803;28;20471;-86
2023/05/25 05:15:10;;;;;;;15.32;6.35;;;9.60;99.90;;;;;;5039760;28;20037;-87
2023/05/25 05:17:36;;;;;;;19.83;8.40;;;9.60;99.90;;;;;;5027164;28;20626;-89
2023/05/25 05:20:03;;;;;;;8.43;4.43;;;9.70;99.90;;;;;;5049625;28;20041;-89
2023/05/25 05:22:31;;;;;;;15.38;6.25;;;9.70;99.90;;;;;;5047759;28;20045;-89
2023/05/25 05:24:58;;;;;;;11.27;5.30;;;9.70;99.90;;;;;;5046056;28;20086;-89
2023/05/25 05:27:27;;;;;;;16.70;6.18;;;9.80;99.90;;;;;;5050802;28;20038;-89
2023/05/25 05:29:53;;;;;;;14.63;7.18;;;9.80;99.90;;;;;;5051641;28;20096;-88
2023/05/25 05:32:18;;;;;;;17.42;8.63;;;9.90;99.90;;;;;;5043460;28;20087;-88
2023/05/25 05:34:44;;;;;;;22.02;8.52;;;9.90;99.90;;;;;;5046994;28;20037;-88
2023/05/25 05:37:10;;;;;;;12.95;6.28;;;10.00;99.90;;;;;;5051011;28;20480;-88
2023/05/25 05:39:36;;;;;;;14.15;6.05;;;10.10;99.90;;;;;;5041307;28;20048;-88
2023/05/25 05:42:02;;;;;;;16.80;8.30;;;10.20;99.90;;;;;;5029312;28;20087;-88
2023/05/25 05:44:28;;;;;;;19.23;8.20;;;10.40;99.90;;;;;;5025432;28;20388;-89
2023/05/25 05:47:00;;;;;;;21.35;7.88;;;10.50;99.90;;;;;;5035037;28;20034;-88
2023/05/25 05:49:29;;;;;;;18.85;7.53;;;10.60;99.90;;;;;;5038993;28;20074;-89
2023/05/25 05:51:55;;;;;;;15.45;6.82;;;10.70;99.90;;;;;;5049082;28;20084;-88
2023/05/25 05:54:21;;;;;;;22.08;7.10;;;10.80;99.90;;;;;;5026759;28;20183;-84
2023/05/25 05:56:47;;;;;;;15.65;6.25;;;11.00;99.90;;;;;;5043671;28;20064;-88
2023/05/25 05:59:13;;;;;;;17.92;6.45;;;11.10;99.90;;;;;;5052080;28;20044;-88
2023/05/25 06:01:39;;;;;;;15.77;5.70;;;11.20;99.90;;;;;;5040998;28;20586;-88
2023/05/25 06:04:05;;;;;;;17.50;5.75;;;11.20;99.90;;;;;;5050177;28;20043;-87
2023/05/25 06:06:33;;;;;;;14.05;6.65;;;11.40;99.90;;;;;;5039475;28;20037;-91
2023/05/25 06:09:02;;;;;;;18.65;6.40;;;11.40;99.90;;;;;;5039558;28;20041;-91
2023/05/25 06:11:28;;;;;;;12.57;4.88;;;11.20;99.90;;;;;;5027315;28;20042;-89
2023/05/25 06:13:54;;;;;;;16.08;4.80;;;11.90;99.90;;;;;;5057265;28;20134;-90
2023/05/25 06:16:19;;;;;;;10.60;4.70;;;12.00;99.90;;;;;;5045752;28;20524;-86
2023/05/25 06:18:45;;;;;;;18.15;5.15;;;11.80;99.90;;;;;;5041786;28;20029;-88
2023/05/25 06:21:11;;;;;;;16.73;5.13;;;11.90;99.90;;;;;;5028812;28;20034;-86
2023/05/25 06:23:37;;;;;;;14.45;4.32;;;12.00;99.90;;;;;;5043882;28;20069;-90
2023/05/25 06:26:06;;;;;;;15.13;4.32;;;12.10;99.90;;;;;;5049281;28;20093;-91
2023/05/25 06:28:31;;;;;;;16.30;4.60;;;12.20;99.90;;;;;;5046336;28;20051;-86
2023/05/25 06:30:57;;;;;;;12.70;4.70;;;12.30;99.90;;;;;;5058190;28;20064;-87
2023/05/25 06:33:23;;;;;;;14.63;4.53;;;12.30;99.90;;;;;;5050763;28;20071;-87
2023/05/25 06:35:49;;;;;;;16.50;4.20;;;12.40;99.90;;;;;;5037199;28;20342;-86
2023/05/25 06:38:15;;;;;;;15.00;4.80;;;12.50;99.90;;;;;;5037313;28;20048;-90
2023/05/25 06:40:41;;;;;;;18.52;4.88;;;12.50;99.90;;;;;;5047302;28;20587;-93
2023/05/25 06:43:06;;;;;;;15.55;4.20;;;12.50;99.90;;;;;;5040030;28;20033;-95
2023/05/25 06:45:32;;;;;;;16.88;4.10;;;12.50;99.90;;;;;;5056352;28;20049;-94
2023/05/25 06:47:58;;;;;;;13.73;4.28;;;12.60;99.90;;;;;;5050469;28;20067;-88
2023/05/25 06:50:23;;;;;;;15.70;4.03;;;12.70;99.90;;;;;;5047971;28;20048;-86
2023/05/25 06:52:50;;;;;;;17.73;4.10;;;12.70;99.90;;;;;;5044745;28;20056;-86
2023/05/25 06:55:15;;;;;;;18.67;4.13;;;12.80;99.90;;;;;;5024044;28;20041;-88
2023/05/25 06:57:42;;;;;;;11.70;3.33;;;12.90;99.90;;;;;;5047198;28;20037;-90
2023/05/25 07:00:11;;;;;;;19.35;4.22;;;13.00;99.90;;;;;;5048736;28;20107;-91
2023/05/25 07:02:37;;;;;;;13.98;3.70;;;13.10;99.90;;;;;;5043833;28;20044;-91
2023/05/25 07:05:04;;;;;;;14.32;3.55;;;13.20;99.90;;;;;;5046347;28;20041;-91
2023/05/25 07:07:30;;;;;;;13.68;3.80;;;13.30;99.90;;;;;;5052043;28;20543;-89
2023/05/25 07:09:56;;;;;;;15.45;3.58;;;13.50;99.90;;;;;;5043754;28;20045;-89
2023/05/25 07:12:22;;;;;;;19.38;3.85;;;13.60;99.90;;;;;;5032721;28;20052;-89
2023/05/25 07:14:48;;;;;;;13.00;4.00;;;13.60;99.90;;;;;;5045637;28;20046;-90
2023/05/25 07:17:14;;;;;;;17.05;3.40;;;13.60;99.90;;;;;;5042653;28;20037;-89
2023/05/25 07:19:42;;;;;;;20.92;4.53;;;13.70;99.90;;;;;;5063374;28;20053;-89
2023/05/25 07:22:11;;;;;;;17.77;5.25;;;13.60;99.90;;;;;;5041970;28;20518;-90
2023/05/25 07:24:37;;;;;;;16.77;3.95;;;13.50;99.90;;;;;;5056500;28;20052;-90
2023/05/25 07:27:03;;;;;;;13.13;3.28;;;13.70;99.90;;;;;;5046491;28;20038;-89
2023/05/25 07:29:29;;;;;;;15.45;3.90;;;13.50;99.90;;;;;;5041751;28;20048;-89
2023/05/25 07:31:54;;;;;;;17.02;4.90;;;13.70;99.90;;;;;;5043726;28;20045;-89
2023/05/25 07:34:20;;;;;;;14.07;3.75;;;13.70;99.90;;;;;;5057457;28;20040;-89
2023/05/25 07:36:46;;;;;;;14.15;3.80;;;13.70;99.90;;;;;;5043158;28;20071;-90
2023/05/25 07:39:12;;;;;;;23.45;4.00;;;13.70;99.90;;;;;;5046180;28;20100;-90
2023/05/25 07:41:38;;;;;;;20.35;4.55;;;13.80;99.90;;;;;;5055131;28;20041;-90
2023/05/25 07:44:04;;;;;;;12.10;3.17;;;13.90;99.90;;;;;;5040009;28;20041;-89
2023/05/25 07:46:30;;;;;;;19.00;3.85;;;14.20;99.90;;;;;;5044708;28;20053;-90
2023/05/25 07:48:58;;;;;;;17.70;4.03;;;14.30;99.90;;;;;;5045516;28;20048;-90
2023/05/25 07:51:25;;;;;;;23.33;4.43;;;14.40;99.90;;;;;;5048324;28;20143;-90
2023/05/25 07:53:52;;;;;;;15.95;4.28;;;14.40;99.90;;;;;;5047347;28;20061;-89
2023/05/25 07:56:18;;;;;;;12.88;3.28;;;14.30;99.90;;;;;;5039265;28;20055;-88
2023/05/25 07:58:45;;;;;;;18.15;4.15;;;14.40;99.90;;;;;;5041855;28;20077;-89
2023/05/25 08:01:11;;;;;;;24.40;4.78;;;14.50;99.90;;;;;;5046215;28;20042;-90
2023/05/25 08:03:36;;;;;;;18.20;4.40;;;15.00;99.90;;;;;;5042265;28;20045;-91
2023/05/25 08:06:02;;;;;;;18.75;4.15;;;15.10;99.90;;;;;;5044186;28;20116;-90
2023/05/25 08:08:28;;;;;;;21.67;4.35;;;15.40;99.90;;;;;;5051681;28;20037;-89
2023/05/25 08:10:54;;;;;;;14.25;3.60;;;15.60;99.90;;;;;;5052949;28;20048;-90
2023/05/25 08:13:20;;;;;;;27.90;4.40;;;15.80;99.90;;;;;;5048377;28;20048;-90
2023/05/25 08:15:46;;;;;;;21.10;5.25;;;15.70;99.90;;;;;;5045696;28;20048;-89
2023/05/25 08:18:11;;;;;;;20.88;4.10;;;15.60;99.90;;;;;;5049499;28;20049;-90
2023/05/25 08:20:37;;;;;;;15.95;3.53;;;15.60;99.90;;;;;;5040783;28;20072;-91
2023/05/25 08:23:03;;;;;;;14.13;4.10;;;15.60;99.90;;;;;;5045790;28;20350;-90
2023/05/25 08:25:29;;;;;;;25.33;4.93;;;15.50;99.90;;;;;;5046364;28;20037;-90
2023/05/25 08:27:55;;;;;;;25.50;5.00;;;15.50;99.90;;;;;;5039868;28;20041;-90
2023/05/25 08:30:21;;;;;;;20.13;4.35;;;15.50;99.90;;;;;;5041149;28;20041;-90
2023/05/25 08:32:46;;;;;;;21.08;3.58;;;15.60;99.90;;;;;;5042280;28;20498;-90
2023/05/25 08:35:12;;;;;;;20.92;4.72;;;15.80;99.90;;;;;;5048344;28;20028;-87
2023/05/25 08:37:39;;;;;;;24.02;5.45;;;15.70;99.90;;;;;;5045981;28;20052;-87
2023/05/25 08:40:07;;;;;;;18.00;3.78;;;15.80;99.90;;;;;;5038876;28;20433;-87
2023/05/25 08:42:32;;;;;;;19.23;4.57;;;15.80;99.90;;;;;;5039141;28;20496;-88
2023/05/25 08:44:58;;;;;;;21.25;4.40;;;15.80;99.90;;;;;;5036908;28;20029;-87
2023/05/25 08:47:28;;;;;;;19.55;4.35;;;15.90;99.90;;;;;;5040294;28;20127;-87
2023/05/25 08:49:55;;;;;;;19.48;4.25;;;16.10;99.90;;;;;;5044512;28;20042;-86
2023/05/25 08:52:22;;;;;;;17.90;4.10;;;16.20;99.90;;;;;;5034870;28;20045;-87
2023/05/25 08:54:53;;;;;;;19.02;4.22;;;16.40;99.90;;;;;;5035944;28;20567;-88
2023/05/25 08:57:18;;;;;;;20.42;4.15;;;16.50;99.90;;;;;;5037206;28;20050;-93
2023/05/25 08:59:50;;;;;;;16.13;4.22;;;16.50;99.90;;;;;;5047866;28;20065;-90
2023/05/25 09:02:23;;;;;;;23.52;3.97;;;16.60;99.90;;;;;;5042049;28;20129;-89
2023/05/25 09:04:49;;;;;;;21.10;4.60;;;16.70;99.90;;;;;;5044150;28;20043;-88
2023/05/25 09:07:15;;;;;;;19.90;3.88;;;16.60;99.90;;;;;;5050946;28;20108;-86
2023/05/25 09:09:42;;;;;;;17.63;3.58;;;16.60;99.90;;;;;;5039790;28;20048;-86
2023/05/25 09:12:08;;;;;;;17.33;3.90;;;16.70;99.90;;;;;;5054440;28;20053;-87
2023/05/25 09:14:36;;;;;;;17.20;4.25;;;16.70;99.90;;;;;;5045442;28;20046;-90
2023/05/25 09:17:02;;;;;;;18.67;3.88;;;16.90;99.90;;;;;;5038697;28;20080;-86
2023/05/25 09:19:31;;;;;;;19.40;4.07;;;17.00;99.90;;;;;;5040246;28;20041;-92
2023/05/25 09:21:59;;;;;;;21.92;4.68;;;17.00;99.90;;;;;;5046447;28;20039;-89
2023/05/25 09:24:25;;;;;;;22.98;4.85;;;17.20;99.90;;;;;;5049478;28;20053;-91
2023/05/25 09:26:51;;;;;;;16.55;4.35;;;17.10;99.90;;;;;;5046041;28;20044;-90
2023/05/25 09:29:16;;;;;;;21.98;3.97;;;17.10;99.90;;;;;;5043710;28;20041;-90
2023/05/25 09:31:42;;;;;;;17.60;4.03;;;17.10;99.90;;;;;;5052513;28;20040;-91
2023/05/25 09:34:13;;;;;;;16.98;3.75;;;17.10;99.90;;;;;;5048828;28;20044;-91
2023/05/25 09:36:42;;;;;;;19.60;3.90;;;16.90;99.90;;;;;;5037569;28;20095;-90
2023/05/25 09:39:09;;;;;;;20.98;4.10;;;16.80;99.90;;;;;;5038799;28;20037;-90
2023/05/25 09:41:44;;;;;;;17.42;3.50;;;16.90;99.90;;;;;;5050401;28;20037;-90
2023/05/25 09:44:10;;;;;;;17.80;3.65;;;17.00;99.90;;;;;;5041894;28;20106;-91
2023/05/25 09:46:37;;;;;;;18.30;3.90;;;17.20;99.90;;;;;;5048474;28;20424;-90
2023/05/25 09:49:07;;;;;;;20.50;5.47;;;17.20;99.90;;;;;;5048779;28;20052;-90
2023/05/25 09:51:35;;;;;;;14.85;4.00;;;17.30;99.90;;;;;;5040951;28;20049;-90
2023/05/25 09:54:02;;;;;;;16.73;4.05;;;17.40;99.90;;;;;;5052794;28;20052;-90
2023/05/25 09:56:30;;;;;;;14.57;4.03;;;17.50;99.90;;;;;;5044491;28;20069;-90
2023/05/25 09:58:57;;;;;;;13.95;3.97;;;17.60;99.90;;;;;;5043453;28;20048;-89
2023/05/25 10:01:23;;;;;;;19.75;4.43;;;17.60;99.90;;;;;;5037580;28;20033;-91
2023/05/25 10:03:55;;;;;;;20.10;4.47;;;17.60;99.90;;;;;;5049581;28;20043;-90
2023/05/25 10:06:24;;;;;;;17.38;4.28;;;17.70;99.90;;;;;;5039853;28;20069;-89
2023/05/25 10:08:52;;;;;;;17.45;3.58;;;17.80;99.90;;;;;;5038098;28;20045;-90
2023/05/25 10:11:20;;;;;;;19.67;4.57;;;17.90;99.90;;;;;;5050857;28;20125;-89
2023/05/25 10:13:47;;;;;;;19.45;3.85;;;18.00;99.90;;;;;;5050573;28;20038;-90
2023/05/25 10:16:17;;;;;;;15.77;3.88;;;18.10;99.90;;;;;;5044783;28;20075;-89
2023/05/25 10:19:11;;;;;;;16.92;4.30;;;18.20;99.90;;;;;;5047081;28;20044;-88
2023/05/25 10:21:38;;;;;;;18.15;3.83;;;18.20;99.90;;;;;;5047950;28;20084;-90
2023/05/25 10:24:08;;;;;;;21.40;4.68;;;18.10;99.90;;;;;;5041155;28;20045;-89
2023/05/25 10:26:39;;;;;;;19.27;4.40;;;18.10;99.90;;;;;;5037509;28;20124;-90
2023/05/25 10:29:06;;;;;;;20.25;4.68;;;17.90;99.90;;;;;;5032278;28;20052;-91
2023/05/25 10:31:36;;;;;;;19.52;4.57;;;17.80;99.90;;;;;;5036146;28;20037;-86
2023/05/25 10:34:02;;;;;;;18.52;4.72;;;17.60;99.90;;;;;;5045533;28;20029;-88
2023/05/25 10:36:29;;;;;;;16.40;4.75;;;17.60;99.90;;;;;;5040997;28;20091;-90
2023/05/25 10:38:55;;;;;;;21.88;4.75;;;17.80;99.90;;;;;;5051253;28;20060;-87
2023/05/25 10:41:21;;;;;;;15.65;4.05;;;17.70;99.90;;;;;;5043690;28;20033;-85
2023/05/25 10:43:48;;;;;;;17.83;4.15;;;17.70;99.90;;;;;;5032539;28;20056;-85
2023/05/25 10:46:15;;;;;;;17.05;4.22;;;17.90;99.90;;;;;;5035677;28;20048;-87
2023/05/25 10:48:48;;;;;;;19.25;4.68;;;18.00;99.90;;;;;;5045178;28;20099;-85
2023/05/25 10:51:13;;;;;;;17.15;4.35;;;18.20;99.90;;;;;;5039913;28;20064;-84
2023/05/25 10:53:57;;;;;;;17.88;4.47;;;18.20;99.90;;;;;;5042419;28;20081;-84
2023/05/25 10:56:22;;;;;;;19.98;4.78;;;18.20;99.90;;;;;;5044228;28;20510;-85
2023/05/25 10:58:48;;;;;;;18.08;3.83;;;18.00;99.90;;;;;;5049140;28;20057;-87
2023/05/25 11:01:14;;;;;;;20.83;4.25;;;17.90;99.90;;;;;;5052705;28;20720;-85
2023/05/25 11:03:43;;;;;;;19.17;4.20;;;17.90;99.90;;;;;;5045896;28;20518;-85
2023/05/25 11:06:16;;;;;;;24.25;5.55;;;18.00;99.90;;;;;;5047895;28;20128;-86
2023/05/25 11:08:49;;;;;;;22.80;4.60;;;18.10;99.90;;;;;;5046464;28;20033;-87
2023/05/25 11:11:15;;;;;;;21.73;4.63;;;18.10;99.90;;;;;;5043199;28;20296;-86
2023/05/25 11:13:45;;;;;;;20.88;5.00;;;18.10;99.90;;;;;;5041551;28;20071;-87
2023/05/25 11:16:26;;;;;;;23.38;5.40;;;17.90;99.90;;;;;;5046255;28;20440;-87
2023/05/25 11:18:58;;;;;;;18.52;4.50;;;18.00;99.90;;;;;;5041795;28;20038;-86
2023/05/25 11:21:29;;;;;;;16.90;5.00;;;18.00;99.90;;;;;;5044552;28;20141;-87
2023/05/25 11:24:05;;;;;;;17.77;4.72;;;18.00;99.90;;;;;;5040843;28;20049;-85
2023/05/25 11:26:35;;;;;;;21.50;5.40;;;17.90;99.90;;;;;;5038302;28;20075;-86
2023/05/25 11:29:11;;;;;;;22.45;5.10;;;17.90;99.90;;;;;;5042813;28;20045;-86
2023/05/25 11:31:38;;;;;;;22.85;5.65;;;17.90;99.90;;;;;;5043639;28;20041;-86
2023/05/25 11:34:04;;;;;;;25.35;5.43;;;18.10;99.90;;;;;;5044204;28;20029;-87
2023/05/25 11:36:32;;;;;;;21.42;4.38;;;18.00;99.90;;;;;;5042882;28;20047;-87
2023/05/25 11:39:03;;;;;;;17.90;4.65;;;18.10;99.90;;;;;;5046671;28;20088;-87
2023/05/25 11:41:30;;;;;;;21.08;5.30;;;18.20;99.90;;;;;;5043854;28;20041;-86
2023/05/25 11:44:05;;;;;;;19.48;5.13;;;18.30;99.90;;;;;;5043572;28;20048;-87
2023/05/25 11:46:32;;;;;;;20.25;5.30;;;18.20;99.90;;;;;;5037441;28;20491;-85
2023/05/25 11:48:58;;;;;;;18.38;4.70;;;18.30;99.90;;;;;;5040842;28;20044;-86
2023/05/25 11:51:29;;;;;;;20.25;4.72;;;18.30;99.90;;;;;;5049234;28;20092;-88
2023/05/25 11:53:55;;;;;;;19.73;4.40;;;18.40;99.90;;;;;;5044447;28;20080;-87
2023/05/25 11:56:21;;;;;;;22.63;5.30;;;18.30;99.90;;;;;;5044681;28;20060;-87
2023/05/25 11:58:49;;;;;;;19.40;5.10;;;18.20;99.10;;;;;;5044449;28;20036;-87
2023/05/25 12:01:22;;;;;;;20.20;4.97;;;18.20;99.90;;;;;;5065440;28;20076;-86
2023/05/25 12:04:00;;;;;;;16.07;4.13;;;18.20;99.90;;;;;;5038194;28;20549;-87
2023/05/25 12:06:32;;;;;;;20.30;4.18;;;18.20;99.90;;;;;;5038935;28;20488;-87
2023/05/25 12:09:00;;;;;;;17.35;4.22;;;18.30;99.90;;;;;;5045191;28;20503;-86
2023/05/25 12:11:44;;;;;;;18.15;4.38;;;18.50;99.90;;;;;;5042482;28;20046;-86
2023/05/25 12:14:10;;;;;;;17.23;4.65;;;18.60;98.80;;;;;;5045907;28;20047;-88
2023/05/25 12:16:37;;;;;;;23.05;4.85;;;18.90;99.70;;;;;;5043737;28;20374;-88
2023/05/25 12:19:04;;;;;;;21.80;5.00;;;19.00;98.90;;;;;;5047889;28;20130;-87
2023/05/25 12:21:31;;;;;;;18.42;4.47;;;19.00;99.30;;;;;;5038233;28;20037;-88
2023/05/25 12:23:57;;;;;;;20.63;4.18;;;18.80;97.90;;;;;;5042357;28;20045;-87
2023/05/25 12:26:23;;;;;;;18.38;4.20;;;18.80;99.10;;;;;;5035990;28;20045;-88
2023/05/25 12:29:02;;;;;;;20.55;4.93;;;18.70;99.10;;;;;;5044711;28;20037;-88
2023/05/25 12:31:30;;;;;;;18.58;4.80;;;18.70;99.50;;;;;;5057143;28;20387;-87
2023/05/25 12:34:04;;;;;;;16.88;4.15;;;18.80;99.10;;;;;;5051188;28;20124;-87
2023/05/25 12:36:52;;;;;;;17.40;4.10;;;18.90;99.00;;;;;;5042154;28;20114;-88
2023/05/25 12:39:33;;;;;;;19.98;4.30;;;19.10;98.20;;;;;;5043072;28;20047;-87
2023/05/25 12:42:01;;;;;;;16.80;4.20;;;19.10;98.60;;;;;;5050568;28;20069;-88
2023/05/25 12:44:32;;;;;;;18.05;4.63;;;18.90;98.80;;;;;;5046146;28;20075;-88